createdAt,value
2022-08-25T00:00:48.616Z,32.20
2022-08-25T00:02:03.165Z,32.17
2022-08-25T00:03:14.710Z,32.20
2022-08-25T00:04:23.482Z,32.45
2022-08-25T00:05:32.305Z,32.64
2022-08-25T00:06:42.823Z,32.60
2022-08-25T00:07:50.435Z,32.86
2022-08-25T00:09:00.986Z,32.78
2022-08-25T00:10:10.374Z,32.92
2022-08-25T00:11:24.043Z,33.15
2022-08-25T00:12:32.061Z,33.35
2022-08-25T00:13:40.873Z,33.35
2022-08-25T00:14:48.644Z,33.51
2022-08-25T00:15:57.432Z,33.49
2022-08-25T00:17:07.993Z,33.92
2022-08-25T00:18:19.867Z,34.25
2022-08-25T00:19:34.661Z,34.44
2022-08-25T00:20:49.000Z,34.43
2022-08-25T00:22:02.080Z,34.53
2022-08-25T00:23:12.794Z,34.82
2022-08-25T00:24:21.040Z,34.61
2022-08-25T00:25:29.250Z,34.63
2022-08-25T00:26:36.730Z,34.92
2022-08-25T00:27:46.615Z,35.06
2022-08-25T00:29:01.763Z,34.88
2022-08-25T00:30:13.437Z,34.90
2022-08-25T00:31:38.285Z,34.92
2022-08-25T00:32:52.565Z,34.61
2022-08-25T00:34:13.730Z,34.17
2022-08-25T00:35:29.518Z,34.24
2022-08-25T00:36:36.791Z,34.33
2022-08-25T00:37:47.724Z,34.32
2022-08-25T00:38:57.130Z,34.22
2022-08-25T00:40:07.711Z,34.14
2022-08-25T00:41:19.957Z,34.20
2022-08-25T00:42:28.405Z,34.49
2022-08-25T00:43:59.324Z,34.33
2022-08-25T00:45:08.163Z,34.28
2022-08-25T00:46:21.716Z,34.31
2022-08-25T00:47:30.742Z,34.58
2022-08-25T00:48:39.586Z,34.48
2022-08-25T00:49:55.676Z,34.43
2022-08-25T00:51:03.883Z,34.34
2022-08-25T00:52:18.128Z,34.06
2022-08-25T00:53:25.228Z,34.18
2022-08-25T00:55:08.256Z,34.26
2022-08-25T00:56:15.612Z,34.72
2022-08-25T00:57:34.874Z,34.84
2022-08-25T00:58:44.268Z,35.01
2022-08-25T00:59:53.560Z,34.94
2022-08-25T01:01:03.612Z,34.78
2022-08-25T01:02:15.375Z,34.75
2022-08-25T01:03:33.091Z,34.87
2022-08-25T01:04:48.587Z,34.68
2022-08-25T01:05:58.214Z,34.60
2022-08-25T01:07:17.340Z,34.75
2022-08-25T01:08:29.335Z,34.77
2022-08-25T01:09:44.040Z,34.91
2022-08-25T01:10:51.907Z,35.05
2022-08-25T01:12:02.432Z,35.13
2022-08-25T01:13:35.598Z,34.87
2022-08-25T01:14:44.038Z,34.99
2022-08-25T01:15:57.293Z,35.33
2022-08-25T01:17:08.911Z,35.20
2022-08-25T01:18:18.948Z,35.26
2022-08-25T01:19:28.060Z,35.25
2022-08-25T01:20:38.063Z,35.51
2022-08-25T01:21:49.499Z,35.69
2022-08-25T01:22:57.191Z,35.98
2022-08-25T01:24:07.617Z,36.27
2022-08-25T01:25:52.619Z,36.02
2022-08-25T01:26:59.908Z,36.05
2022-08-25T01:28:10.142Z,35.53
2022-08-25T01:29:26.749Z,35.47
2022-08-25T01:30:42.488Z,35.46
2022-08-25T01:31:53.907Z,35.77
2022-08-25T01:33:14.697Z,36.24
2022-08-25T01:34:23.032Z,36.39
2022-08-25T01:35:31.558Z,36.81
2022-08-25T01:36:40.077Z,36.84
2022-08-25T01:37:48.046Z,36.91
2022-08-25T01:38:55.442Z,36.89
2022-08-25T01:40:04.131Z,37.16
2022-08-25T01:41:12.904Z,37.32
2022-08-25T01:42:27.073Z,37.43
2022-08-25T01:43:40.172Z,37.65
2022-08-25T01:44:49.093Z,37.78
2022-08-25T01:45:57.004Z,37.72
2022-08-25T01:47:05.304Z,37.54
2022-08-25T01:48:13.330Z,37.65
2022-08-25T01:49:22.108Z,37.56
2022-08-25T01:50:34.470Z,37.60
2022-08-25T01:51:46.467Z,37.79
2022-08-25T01:53:38.541Z,38.05
2022-08-25T01:54:47.252Z,38.41
2022-08-25T01:55:57.153Z,38.53
2022-08-25T01:57:06.273Z,39.23
2022-08-25T01:58:14.854Z,39.49
2022-08-25T01:59:24.859Z,39.81
2022-08-25T02:00:34.650Z,40.51
2022-08-25T02:01:45.112Z,41.31
2022-08-25T02:02:55.816Z,41.83
2022-08-25T02:04:05.803Z,41.91
2022-08-25T02:05:23.570Z,42.54
2022-08-25T02:06:36.739Z,43.03
2022-08-25T02:07:46.360Z,43.11
2022-08-25T02:08:55.749Z,43.15
2022-08-25T02:10:07.910Z,43.28
2022-08-25T02:11:17.996Z,43.56
2022-08-25T02:12:26.446Z,43.95
2022-08-25T02:13:34.295Z,44.80
2022-08-25T02:14:42.548Z,44.74
2022-08-25T02:15:52.771Z,44.66
2022-08-25T02:17:01.165Z,44.82
2022-08-25T02:18:10.347Z,44.94
2022-08-25T02:19:21.704Z,45.16
2022-08-25T02:20:30.197Z,45.07
2022-08-25T02:21:37.858Z,45.54
2022-08-25T02:22:56.548Z,45.78
2022-08-25T02:24:06.708Z,46.05
2022-08-25T02:25:18.059Z,46.01
2022-08-25T02:26:26.569Z,45.96
2022-08-25T02:27:37.187Z,46.45
2022-08-25T02:28:47.671Z,46.57
2022-08-25T02:29:55.222Z,46.55
2022-08-25T02:31:08.549Z,47.11
2022-08-25T02:32:18.554Z,47.16
2022-08-25T02:33:28.133Z,47.52
2022-08-25T02:34:37.722Z,47.79
2022-08-25T02:35:45.544Z,48.08
2022-08-25T02:36:55.404Z,48.23
2022-08-25T02:38:03.904Z,48.50
2022-08-25T02:39:16.441Z,48.38
2022-08-25T02:40:26.211Z,48.52
2022-08-25T02:41:35.002Z,48.63
2022-08-25T02:42:46.598Z,48.68
2022-08-25T02:43:54.457Z,48.85
2022-08-25T02:45:02.582Z,49.22
2022-08-25T02:46:12.160Z,49.37
2022-08-25T02:47:25.705Z,49.52
2022-08-25T02:48:38.150Z,49.79
2022-08-25T02:49:46.062Z,49.94
2022-08-25T02:50:54.252Z,50.11
2022-08-25T02:52:02.651Z,50.39
2022-08-25T02:53:12.334Z,50.52
2022-08-25T02:54:21.810Z,50.38
2022-08-25T02:55:31.172Z,50.65
2022-08-25T02:56:47.374Z,50.61
2022-08-25T02:57:55.910Z,50.73
2022-08-25T02:59:06.946Z,50.88
2022-08-25T03:00:15.651Z,51.02
2022-08-25T03:01:25.423Z,51.21
2022-08-25T03:02:40.486Z,51.37
2022-08-25T03:03:51.839Z,51.42
2022-08-25T03:05:00.571Z,51.36
2022-08-25T03:06:16.315Z,51.39
2022-08-25T03:07:24.781Z,51.85
2022-08-25T03:08:34.193Z,51.68
2022-08-25T03:09:51.208Z,51.82
2022-08-25T03:11:47.873Z,51.98
2022-08-25T03:13:25.340Z,51.94
2022-08-25T03:14:40.545Z,51.96
2022-08-25T03:15:54.334Z,52.29
2022-08-25T03:17:03.633Z,52.36
2022-08-25T03:18:21.167Z,52.54
2022-08-25T03:19:35.405Z,52.54
2022-08-25T03:20:51.726Z,52.64
2022-08-25T03:22:03.060Z,53.24
2022-08-25T03:23:12.477Z,53.46
2022-08-25T03:24:21.481Z,53.12
2022-08-25T03:25:50.102Z,53.25
2022-08-25T03:27:07.534Z,52.87
2022-08-25T03:28:17.750Z,53.16
2022-08-25T03:29:33.791Z,53.58
2022-08-25T03:30:44.125Z,53.38
2022-08-25T03:31:53.395Z,53.38
2022-08-25T03:33:02.267Z,53.52
2022-08-25T03:34:11.498Z,54.08
2022-08-25T03:35:19.795Z,53.86
2022-08-25T03:36:28.088Z,54.07
2022-08-25T03:37:35.725Z,54.66
2022-08-25T03:38:44.823Z,54.80
2022-08-25T03:39:52.909Z,54.78
2022-08-25T03:41:03.436Z,55.09
2022-08-25T03:42:14.203Z,55.16
2022-08-25T03:43:22.984Z,55.30
2022-08-25T03:44:31.060Z,55.45
2022-08-25T03:45:43.495Z,55.44
2022-08-25T03:46:53.757Z,55.41
2022-08-25T03:48:04.455Z,55.81
2022-08-25T03:49:15.592Z,56.11
2022-08-25T03:50:24.952Z,56.29
2022-08-25T03:51:35.405Z,56.12
2022-08-25T03:52:43.326Z,56.38
2022-08-25T03:53:53.430Z,56.34
2022-08-25T03:55:01.082Z,56.38
2022-08-25T03:56:12.028Z,56.69
2022-08-25T03:57:22.403Z,56.41
2022-08-25T03:58:32.955Z,56.37
2022-08-25T03:59:43.371Z,56.48
2022-08-25T04:00:50.817Z,56.34
2022-08-25T04:01:58.359Z,56.62
2022-08-25T04:03:07.860Z,56.90
2022-08-25T04:04:16.966Z,57.09
2022-08-25T04:05:28.265Z,57.67
2022-08-25T04:06:36.279Z,57.74
2022-08-25T04:07:45.195Z,57.78
2022-08-25T04:08:54.275Z,57.78
2022-08-25T04:10:02.586Z,57.39
2022-08-25T04:11:16.686Z,57.28
2022-08-25T04:12:26.768Z,57.11
2022-08-25T04:13:34.428Z,57.30
2022-08-25T04:14:45.785Z,57.48
2022-08-25T04:15:56.554Z,57.45
2022-08-25T04:17:05.793Z,57.55
2022-08-25T04:18:14.827Z,57.80
2022-08-25T04:19:22.849Z,57.66
2022-08-25T04:20:32.062Z,57.77
2022-08-25T04:21:40.941Z,58.18
2022-08-25T04:22:49.528Z,58.41
2022-08-25T04:23:58.384Z,58.51
2022-08-25T04:25:07.534Z,58.65
2022-08-25T04:26:36.988Z,58.94
2022-08-25T04:27:45.131Z,58.94
2022-08-25T04:28:55.702Z,58.96
2022-08-25T04:30:05.119Z,58.85
2022-08-25T04:31:16.503Z,58.86
2022-08-25T04:32:24.912Z,59.09
2022-08-25T04:33:34.088Z,59.30
2022-08-25T04:34:45.973Z,59.15
2022-08-25T04:35:53.853Z,59.35
2022-08-25T04:37:03.035Z,59.32
2022-08-25T04:38:14.069Z,59.45
2022-08-25T04:39:23.291Z,59.39
2022-08-25T04:40:31.927Z,59.36
2022-08-25T04:41:39.287Z,59.84
2022-08-25T04:42:48.829Z,60.20
2022-08-25T04:43:59.043Z,60.13
2022-08-25T04:45:09.489Z,60.35
2022-08-25T04:46:24.652Z,60.20
2022-08-25T04:47:40.647Z,60.38
2022-08-25T04:48:49.237Z,60.29
2022-08-25T04:49:59.641Z,60.31
2022-08-25T04:51:13.872Z,60.38
2022-08-25T04:52:25.496Z,60.29
2022-08-25T04:53:34.039Z,60.48
2022-08-25T04:54:45.558Z,60.55
2022-08-25T04:55:53.308Z,60.35
2022-08-25T04:57:01.377Z,60.64
2022-08-25T04:58:14.931Z,60.66
2022-08-25T04:59:30.231Z,60.51
2022-08-25T05:00:38.929Z,60.83
2022-08-25T05:01:50.161Z,61.02
2022-08-25T05:03:00.640Z,61.03
2022-08-25T05:04:21.020Z,61.09
2022-08-25T05:05:39.034Z,61.70
2022-08-25T05:06:48.618Z,61.81
2022-08-25T05:07:58.628Z,61.72
2022-08-25T05:09:08.083Z,61.66
2022-08-25T05:10:18.000Z,61.88
2022-08-25T05:11:27.789Z,61.50
2022-08-25T05:12:37.531Z,61.38
2022-08-25T05:13:51.382Z,61.28
2022-08-25T05:15:21.333Z,61.44
2022-08-25T05:16:30.784Z,61.62
2022-08-25T05:17:38.478Z,61.76
2022-08-25T05:18:47.042Z,62.09
2022-08-25T05:19:57.802Z,62.32
2022-08-25T05:21:11.989Z,62.35
2022-08-25T05:22:20.134Z,62.25
2022-08-25T05:23:30.954Z,62.44
2022-08-25T05:24:38.264Z,62.22
2022-08-25T05:25:49.267Z,62.45
2022-08-25T05:26:56.881Z,62.44
2022-08-25T05:28:06.494Z,62.44
2022-08-25T05:29:18.116Z,62.39
2022-08-25T05:30:26.764Z,62.54
2022-08-25T05:31:42.322Z,62.98
2022-08-25T05:32:52.215Z,63.00
2022-08-25T05:34:06.126Z,62.88
2022-08-25T05:35:15.485Z,62.89
2022-08-25T05:36:26.121Z,62.90
2022-08-25T05:37:33.986Z,63.18
2022-08-25T05:38:44.154Z,63.06
2022-08-25T05:39:52.333Z,63.08
2022-08-25T05:41:00.811Z,63.01
2022-08-25T05:42:11.683Z,63.18
2022-08-25T05:43:22.883Z,63.28
2022-08-25T05:44:31.089Z,63.62
2022-08-25T05:45:38.301Z,63.73
2022-08-25T05:46:46.644Z,63.72
2022-08-25T05:47:55.191Z,63.68
2022-08-25T05:49:06.100Z,63.73
2022-08-25T05:50:15.226Z,63.64
2022-08-25T05:51:24.930Z,63.31
2022-08-25T05:52:32.903Z,63.64
2022-08-25T05:53:41.064Z,63.51
2022-08-25T05:54:51.776Z,63.62
2022-08-25T05:56:02.009Z,63.49
2022-08-25T05:57:11.773Z,63.56
2022-08-25T05:58:23.239Z,63.59
2022-08-25T05:59:33.081Z,63.70
2022-08-25T06:00:41.803Z,63.92
2022-08-25T06:02:09.991Z,63.95
2022-08-25T06:03:18.493Z,64.15
2022-08-25T06:04:29.407Z,64.08
2022-08-25T06:05:37.954Z,63.79
2022-08-25T06:06:46.172Z,63.84
2022-08-25T06:07:56.563Z,63.93
2022-08-25T06:09:07.181Z,63.95
2022-08-25T06:10:16.128Z,63.93
2022-08-25T06:11:24.555Z,63.96
2022-08-25T06:12:35.790Z,64.25
2022-08-25T06:13:45.639Z,64.21
2022-08-25T06:14:53.854Z,64.00
2022-08-25T06:16:04.753Z,63.96
2022-08-25T06:17:13.851Z,63.74
2022-08-25T06:18:22.497Z,63.59
2022-08-25T06:19:33.281Z,63.40
2022-08-25T06:20:40.572Z,63.55
2022-08-25T06:21:48.472Z,63.33
2022-08-25T06:22:56.725Z,63.45
2022-08-25T06:24:04.570Z,63.24
2022-08-25T06:25:17.842Z,63.38
2022-08-25T06:26:27.444Z,63.58
2022-08-25T06:27:36.628Z,63.75
2022-08-25T06:28:44.656Z,63.73
2022-08-25T06:29:56.020Z,63.77
2022-08-25T06:31:07.330Z,63.70
2022-08-25T06:32:15.262Z,63.57
2022-08-25T06:33:22.702Z,63.55
2022-08-25T06:34:31.442Z,63.50
2022-08-25T06:35:39.778Z,63.49
2022-08-25T06:36:49.016Z,63.39
2022-08-25T06:37:56.984Z,63.30
2022-08-25T06:39:08.256Z,63.34
2022-08-25T06:40:20.695Z,63.45
2022-08-25T06:41:37.040Z,63.50
2022-08-25T06:42:51.127Z,63.63
2022-08-25T06:44:04.941Z,63.86
2022-08-25T06:45:14.521Z,63.55
2022-08-25T06:46:34.741Z,63.49
2022-08-25T06:47:45.863Z,63.47
2022-08-25T06:48:56.021Z,63.23
2022-08-25T06:50:05.121Z,63.55
2022-08-25T06:51:13.913Z,63.56
2022-08-25T06:52:22.010Z,63.75
2022-08-25T06:53:38.970Z,63.39
2022-08-25T06:54:49.176Z,63.67
2022-08-25T06:56:04.559Z,63.98
2022-08-25T06:57:15.330Z,64.18
2022-08-25T06:58:22.607Z,64.45
2022-08-25T06:59:32.491Z,64.37
2022-08-25T07:00:41.164Z,64.51
2022-08-25T07:01:49.968Z,64.63
2022-08-25T07:02:59.708Z,64.65
2022-08-25T07:04:11.734Z,64.84
2022-08-25T07:05:33.439Z,64.99
2022-08-25T07:06:49.936Z,65.17
2022-08-25T07:07:58.927Z,65.42
2022-08-25T07:09:12.358Z,65.52
2022-08-25T07:10:22.640Z,65.78
2022-08-25T07:11:30.779Z,65.88
2022-08-25T07:12:42.034Z,65.94
2022-08-25T07:13:49.644Z,65.81
2022-08-25T07:15:17.158Z,65.88
2022-08-25T07:16:31.016Z,66.22
2022-08-25T07:17:38.707Z,66.44
2022-08-25T07:18:47.369Z,66.56
2022-08-25T07:19:57.613Z,66.77
2022-08-25T07:21:08.991Z,66.87
2022-08-25T07:22:18.346Z,66.92
2022-08-25T07:23:28.099Z,66.93
2022-08-25T07:24:38.923Z,66.90
2022-08-25T07:25:46.155Z,67.04
2022-08-25T07:26:54.217Z,67.22
2022-08-25T07:28:01.984Z,67.39
2022-08-25T07:29:32.392Z,67.50
2022-08-25T07:30:42.344Z,67.40
2022-08-25T07:31:49.678Z,67.36
2022-08-25T07:32:57.030Z,67.58
2022-08-25T07:34:26.092Z,67.63
2022-08-25T07:35:37.540Z,67.42
2022-08-25T07:36:45.210Z,67.43
2022-08-25T07:37:59.527Z,67.29
2022-08-25T07:39:08.950Z,67.16
2022-08-25T07:40:22.619Z,67.35
2022-08-25T07:41:32.875Z,67.33
2022-08-25T07:42:41.006Z,67.31
2022-08-25T07:43:51.922Z,67.32
2022-08-25T07:45:02.078Z,67.29
2022-08-25T07:46:10.912Z,67.22
2022-08-25T07:47:19.588Z,67.21
2022-08-25T07:48:32.529Z,67.61
2022-08-25T07:49:40.093Z,67.61
2022-08-25T07:50:48.938Z,67.40
2022-08-25T07:52:04.420Z,67.40
2022-08-25T07:53:17.680Z,67.38
2022-08-25T07:54:33.915Z,67.29
2022-08-25T07:55:45.123Z,67.37
2022-08-25T07:56:58.446Z,67.96
2022-08-25T07:58:06.991Z,68.07
2022-08-25T07:59:14.455Z,68.04
2022-08-25T08:00:22.397Z,68.26
2022-08-25T08:01:33.549Z,68.31
2022-08-25T08:02:41.683Z,68.46
2022-08-25T08:03:51.866Z,68.32
2022-08-25T08:04:59.086Z,68.44
2022-08-25T08:06:10.202Z,68.50
2022-08-25T08:07:43.838Z,68.52
2022-08-25T08:08:54.945Z,68.42
2022-08-25T08:10:42.403Z,68.39
2022-08-25T08:11:40.542Z,68.64
2022-08-25T08:12:52.104Z,68.78
2022-08-25T08:13:59.971Z,68.82
2022-08-25T08:15:10.486Z,68.84
2022-08-25T08:16:19.220Z,68.85
2022-08-25T08:17:28.207Z,68.79
2022-08-25T08:18:38.220Z,68.76
2022-08-25T08:19:49.423Z,68.89
2022-08-25T08:20:59.608Z,68.76
2022-08-25T08:22:09.260Z,68.94
2022-08-25T08:23:18.985Z,68.86
2022-08-25T08:24:44.359Z,69.03
2022-08-25T08:25:58.957Z,69.20
2022-08-25T08:27:11.447Z,69.37
2022-08-25T08:28:19.122Z,69.47
2022-08-25T08:29:26.749Z,69.33
2022-08-25T08:30:34.096Z,69.19
2022-08-25T08:31:48.340Z,69.05
2022-08-25T08:33:09.574Z,68.99
2022-08-25T08:34:19.807Z,69.22
2022-08-25T08:35:36.248Z,69.26
2022-08-25T08:36:45.217Z,69.29
2022-08-25T08:37:52.602Z,69.47
2022-08-25T08:39:02.807Z,69.60
2022-08-25T08:40:11.482Z,69.76
2022-08-25T08:42:07.721Z,69.83
2022-08-25T08:43:20.128Z,69.65
2022-08-25T08:44:39.116Z,69.50
2022-08-25T08:45:52.150Z,69.47
2022-08-25T08:47:38.554Z,69.74
2022-08-25T08:49:06.881Z,69.83
2022-08-25T08:50:35.115Z,70.05
2022-08-25T08:51:50.419Z,70.21
2022-08-25T08:53:34.512Z,70.25
2022-08-25T08:54:44.101Z,70.17
2022-08-25T08:55:59.163Z,70.05
2022-08-25T08:57:18.404Z,69.88
2022-08-25T08:58:50.959Z,69.81
2022-08-25T09:00:02.493Z,69.70
2022-08-25T09:01:12.116Z,69.46
2022-08-25T09:02:50.516Z,69.65
2022-08-25T09:04:21.623Z,69.49
2022-08-25T09:05:43.837Z,69.51
2022-08-25T09:06:56.544Z,69.42
2022-08-25T09:08:09.685Z,69.39
2022-08-25T09:09:38.867Z,69.15
2022-08-25T09:11:11.456Z,69.10
2022-08-25T09:14:14.430Z,69.09
2022-08-25T09:15:58.666Z,68.97
2022-08-25T09:17:25.118Z,69.14
2022-08-25T09:19:21.315Z,69.43
2022-08-25T09:21:11.607Z,69.26
2022-08-25T09:22:59.914Z,69.18
2022-08-25T09:24:35.930Z,69.07
2022-08-25T09:25:53.041Z,69.08
2022-08-25T09:27:19.994Z,68.95
2022-08-25T09:28:34.595Z,68.86
2022-08-25T09:29:51.152Z,68.88
2022-08-25T09:31:06.590Z,69.33
2022-08-25T09:32:15.410Z,69.52
2022-08-25T09:33:35.927Z,69.46
2022-08-25T09:34:43.327Z,69.39
2022-08-25T09:35:54.028Z,69.36
2022-08-25T09:37:05.762Z,69.54
2022-08-25T09:38:16.015Z,69.61
2022-08-25T09:39:24.965Z,69.66
2022-08-25T09:40:39.935Z,69.78
2022-08-25T09:41:57.428Z,70.10
2022-08-25T09:43:33.998Z,70.34
2022-08-25T09:44:50.491Z,70.57
2022-08-25T09:46:26.861Z,70.54
2022-08-25T09:47:38.890Z,70.68
2022-08-25T09:49:13.231Z,70.67
2022-08-25T09:50:26.203Z,70.72
2022-08-25T09:51:38.183Z,70.49
2022-08-25T09:52:53.427Z,70.41
2022-08-25T09:54:19.718Z,70.43
2022-08-25T09:55:33.171Z,70.51
2022-08-25T09:57:03.316Z,70.84
2022-08-25T09:58:22.803Z,71.07
2022-08-25T09:59:37.590Z,71.08
2022-08-25T10:00:47.910Z,71.05
2022-08-25T10:02:00.893Z,70.99
2022-08-25T10:03:24.595Z,70.78
2022-08-25T10:04:38.170Z,70.50
2022-08-25T10:06:14.860Z,70.48
2022-08-25T10:07:37.935Z,70.40
2022-08-25T10:08:52.286Z,70.42
2022-08-25T10:10:04.818Z,70.62
2022-08-25T10:11:17.461Z,70.68
2022-08-25T10:12:42.781Z,70.61
2022-08-25T10:13:55.121Z,70.57
2022-08-25T10:15:02.863Z,70.56
2022-08-25T10:16:25.018Z,70.52
2022-08-25T10:17:34.136Z,70.45
2022-08-25T10:18:43.770Z,70.43
2022-08-25T10:20:14.749Z,70.56
2022-08-25T10:21:24.750Z,70.61
2022-08-25T10:22:35.488Z,70.56
2022-08-25T10:23:50.496Z,70.73
2022-08-25T10:24:58.948Z,70.96
2022-08-25T10:26:18.680Z,71.39
2022-08-25T10:28:02.668Z,71.71
2022-08-25T10:29:21.444Z,71.84
2022-08-25T10:31:01.141Z,71.74
2022-08-25T10:32:44.994Z,71.46
2022-08-25T10:34:08.365Z,71.27
2022-08-25T10:35:20.014Z,71.32
2022-08-25T10:36:39.067Z,71.64
2022-08-25T10:38:21.776Z,71.71
2022-08-25T10:39:55.464Z,71.57
2022-08-25T10:41:39.979Z,71.69
2022-08-25T10:43:08.773Z,71.73
2022-08-25T10:45:16.218Z,72.00
2022-08-25T10:46:36.136Z,71.99
2022-08-25T10:47:51.903Z,72.34
2022-08-25T10:49:09.268Z,72.48
2022-08-25T10:50:52.931Z,72.69
2022-08-25T10:52:23.450Z,73.10
2022-08-25T10:54:03.991Z,73.40
2022-08-25T10:55:15.664Z,73.34
2022-08-25T10:56:40.821Z,73.46
2022-08-25T10:58:24.869Z,73.66
2022-08-25T10:59:50.028Z,73.65
2022-08-25T11:01:20.965Z,73.92
2022-08-25T11:03:18.943Z,74.03
2022-08-25T11:04:48.328Z,73.81
2022-08-25T11:06:22.421Z,73.80
2022-08-25T11:07:40.499Z,73.94
2022-08-25T11:09:08.398Z,74.00
2022-08-25T11:10:54.682Z,74.00
2022-08-25T11:12:39.737Z,74.30
2022-08-25T11:14:10.988Z,74.65
2022-08-25T11:15:27.240Z,74.57
2022-08-25T11:17:10.324Z,74.43
2022-08-25T11:18:18.228Z,74.09
2022-08-25T11:19:40.697Z,74.12
2022-08-25T11:20:51.287Z,74.15
2022-08-25T11:22:11.165Z,74.17
2022-08-25T11:24:17.745Z,74.10
2022-08-25T11:25:43.116Z,74.14
2022-08-25T11:26:55.162Z,73.98
2022-08-25T11:28:32.751Z,73.90
2022-08-25T11:29:39.995Z,73.94
2022-08-25T11:30:48.560Z,73.94
2022-08-25T11:31:56.121Z,74.00
2022-08-25T11:33:03.580Z,74.13
2022-08-25T11:34:19.580Z,74.18
2022-08-25T11:35:50.880Z,74.23
2022-08-25T11:37:11.146Z,74.14
2022-08-25T11:38:44.864Z,74.14
2022-08-25T11:40:35.517Z,74.25
2022-08-25T11:42:04.606Z,74.09
2022-08-25T11:43:35.591Z,74.16
2022-08-25T11:45:03.178Z,74.19
2022-08-25T11:46:27.844Z,74.06
2022-08-25T11:48:08.412Z,74.17
2022-08-25T11:49:22.551Z,74.19
2022-08-25T11:51:05.498Z,74.06
2022-08-25T11:52:55.161Z,74.32
2022-08-25T11:54:51.302Z,74.60
2022-08-25T11:56:13.842Z,74.58
2022-08-25T11:57:26.961Z,74.56
2022-08-25T11:58:53.119Z,74.61
2022-08-25T12:00:33.895Z,74.60
2022-08-25T12:01:51.721Z,74.57
2022-08-25T12:03:01.753Z,74.45
2022-08-25T12:04:42.168Z,74.63
2022-08-25T12:06:15.794Z,74.66
2022-08-25T12:07:26.902Z,74.38
2022-08-25T12:08:57.694Z,74.31
2022-08-25T12:10:08.736Z,74.24
2022-08-25T12:11:16.191Z,74.20
2022-08-25T12:12:34.408Z,74.11
2022-08-25T12:13:51.743Z,74.14
2022-08-25T12:15:31.563Z,74.15
2022-08-25T12:16:38.751Z,74.16
2022-08-25T12:18:09.923Z,74.32
2022-08-25T12:19:39.959Z,74.37
2022-08-25T12:21:03.430Z,74.36
2022-08-25T12:22:10.992Z,74.11
2022-08-25T12:23:18.372Z,74.10
2022-08-25T12:24:47.703Z,74.06
2022-08-25T12:25:59.164Z,73.98
2022-08-25T12:27:07.794Z,74.03
2022-08-25T12:29:01.021Z,74.15
2022-08-25T12:30:27.559Z,74.07
2022-08-25T12:32:13.217Z,74.18
2022-08-25T12:33:40.173Z,74.23
2022-08-25T12:35:09.952Z,74.09
2022-08-25T12:36:35.644Z,74.03
2022-08-25T12:38:29.264Z,74.04
2022-08-25T12:39:44.530Z,73.89
2022-08-25T12:40:51.945Z,73.91
2022-08-25T12:42:09.908Z,74.13
2022-08-25T12:43:49.435Z,74.27
2022-08-25T12:45:22.994Z,74.14
2022-08-25T12:46:31.375Z,74.08
2022-08-25T12:47:44.719Z,73.98
2022-08-25T12:49:03.846Z,73.95
2022-08-25T12:50:38.541Z,74.05
2022-08-25T12:52:14.629Z,73.90
2022-08-25T12:53:42.129Z,74.02
2022-08-25T12:55:06.675Z,73.80
2022-08-25T12:56:35.053Z,73.97
2022-08-25T12:57:59.462Z,74.15
2022-08-25T12:59:27.368Z,74.16
2022-08-25T13:01:32.785Z,74.18
2022-08-25T13:03:17.787Z,74.17
2022-08-25T13:05:00.940Z,74.42
2022-08-25T13:06:15.867Z,74.24
2022-08-25T13:07:36.442Z,74.09
2022-08-25T13:09:08.306Z,74.11
2022-08-25T13:10:25.841Z,74.10
2022-08-25T13:11:48.247Z,74.20
2022-08-25T13:13:33.178Z,74.11
2022-08-25T13:14:44.211Z,74.12
2022-08-25T13:16:08.674Z,74.18
2022-08-25T13:17:33.804Z,74.23
2022-08-25T13:18:42.966Z,74.33
2022-08-25T13:19:53.191Z,74.29
2022-08-25T13:21:19.225Z,74.27
2022-08-25T13:22:30.566Z,74.24
2022-08-25T13:23:40.482Z,74.22
2022-08-25T13:24:52.324Z,74.17
2022-08-25T13:25:59.941Z,74.37
2022-08-25T13:27:11.957Z,74.46
2022-08-25T13:28:33.651Z,74.53
2022-08-25T13:29:55.585Z,74.33
2022-08-25T13:31:07.488Z,74.34
2022-08-25T13:32:16.641Z,74.29
2022-08-25T13:33:27.722Z,74.04
2022-08-25T13:34:43.168Z,73.93
2022-08-25T13:35:52.162Z,73.99
2022-08-25T13:37:22.356Z,73.82
2022-08-25T13:38:31.131Z,73.92
2022-08-25T13:39:55.350Z,73.86
2022-08-25T13:41:08.222Z,73.85
2022-08-25T13:42:18.377Z,73.74
2022-08-25T13:43:27.734Z,73.72
2022-08-25T13:44:38.093Z,73.46
2022-08-25T13:45:50.392Z,73.29
2022-08-25T13:47:13.728Z,73.07
2022-08-25T13:48:49.497Z,72.90
2022-08-25T13:50:18.813Z,72.72
2022-08-25T13:51:31.202Z,72.69
2022-08-25T13:52:42.973Z,72.62
2022-08-25T13:54:00.145Z,72.53
2022-08-25T13:55:07.963Z,72.47
2022-08-25T13:56:32.300Z,72.57
2022-08-25T13:57:44.272Z,72.51
2022-08-25T13:58:54.528Z,72.56
2022-08-25T14:00:10.999Z,72.41
2022-08-25T14:01:47.191Z,72.21
2022-08-25T14:03:00.193Z,72.18
2022-08-25T14:04:28.449Z,72.12
2022-08-25T14:05:43.737Z,71.97
2022-08-25T14:06:51.267Z,71.92
2022-08-25T14:08:15.790Z,71.77
2022-08-25T14:09:28.101Z,71.69
2022-08-25T14:10:39.466Z,71.72
2022-08-25T14:11:57.608Z,71.75
2022-08-25T14:13:18.983Z,71.66
2022-08-25T14:14:26.234Z,71.58
2022-08-25T14:15:34.619Z,71.34
2022-08-25T14:16:57.411Z,71.06
2022-08-25T14:18:13.836Z,70.80
2022-08-25T14:19:25.088Z,70.60
2022-08-25T14:20:33.563Z,70.47
2022-08-25T14:21:41.043Z,70.25
2022-08-25T14:22:52.603Z,70.14
2022-08-25T14:24:01.352Z,70.07
2022-08-25T14:25:08.992Z,69.98
2022-08-25T14:26:17.894Z,69.90
2022-08-25T14:27:26.654Z,69.86
2022-08-25T14:28:34.940Z,69.71
2022-08-25T14:29:42.227Z,69.42
2022-08-25T14:30:59.644Z,69.43
2022-08-25T14:32:09.172Z,68.59
2022-08-25T14:33:19.814Z,67.92
2022-08-25T14:34:32.333Z,67.17
2022-08-25T14:35:39.752Z,66.75
2022-08-25T14:36:49.656Z,66.26
2022-08-25T14:37:57.881Z,65.27
2022-08-25T14:39:08.885Z,64.12
2022-08-25T14:40:20.848Z,63.49
2022-08-25T14:41:30.893Z,62.46
2022-08-25T14:42:39.927Z,61.99
2022-08-25T14:43:47.452Z,60.62
2022-08-25T14:44:56.181Z,59.77
2022-08-25T14:46:05.251Z,58.46
2022-08-25T14:47:13.514Z,57.73
2022-08-25T14:48:37.615Z,57.69
2022-08-25T14:49:49.692Z,56.68
2022-08-25T14:51:01.510Z,56.14
2022-08-25T14:52:22.660Z,55.41
2022-08-25T14:53:33.782Z,54.72
2022-08-25T14:54:42.028Z,54.18
2022-08-25T14:55:58.941Z,53.00
2022-08-25T14:57:08.502Z,52.72
2022-08-25T14:58:25.903Z,52.43
2022-08-25T14:59:43.167Z,51.89
2022-08-25T15:00:51.629Z,49.40
2022-08-25T15:01:59.711Z,49.88
2022-08-25T15:03:10.116Z,49.38
2022-08-25T15:04:23.615Z,48.08
2022-08-25T15:05:33.236Z,47.53
2022-08-25T15:06:43.858Z,47.19
2022-08-25T15:08:12.476Z,47.40
2022-08-25T15:09:22.941Z,47.52
2022-08-25T15:10:32.884Z,46.84
2022-08-25T15:11:46.426Z,46.97
2022-08-25T15:12:54.928Z,47.02
2022-08-25T15:14:05.053Z,47.49
2022-08-25T15:15:13.703Z,47.20
2022-08-25T15:16:35.173Z,47.10
2022-08-25T15:17:44.622Z,46.99
2022-08-25T15:18:53.042Z,46.93
2022-08-25T15:20:01.713Z,46.62
2022-08-25T15:21:15.044Z,46.49
2022-08-25T15:22:24.008Z,45.83
2022-08-25T15:23:35.892Z,45.67
2022-08-25T15:24:47.878Z,45.10
2022-08-25T15:25:58.441Z,44.85
2022-08-25T15:27:10.029Z,44.92
2022-08-25T15:28:21.853Z,45.33
2022-08-25T15:29:32.500Z,45.54
2022-08-25T15:30:43.278Z,45.52
2022-08-25T15:31:56.827Z,45.18
2022-08-25T15:33:04.043Z,45.11
2022-08-25T15:34:14.522Z,44.65
2022-08-25T15:35:27.757Z,44.30
2022-08-25T15:36:39.806Z,44.55
2022-08-25T15:37:49.968Z,44.31
2022-08-25T15:38:57.976Z,44.20
2022-08-25T15:40:07.056Z,43.85
2022-08-25T15:41:16.778Z,43.52
2022-08-25T15:42:26.670Z,43.17
2022-08-25T15:43:37.326Z,43.08
2022-08-25T15:44:52.849Z,43.18
2022-08-25T15:46:03.528Z,42.88
2022-08-25T15:47:12.965Z,42.42
2022-08-25T15:48:21.541Z,41.14
2022-08-25T15:49:31.385Z,40.72
2022-08-25T15:50:40.977Z,40.68
2022-08-25T15:51:49.745Z,40.46
2022-08-25T15:52:58.281Z,40.16
2022-08-25T15:54:05.798Z,40.67
2022-08-25T15:55:17.326Z,41.01
2022-08-25T15:56:26.401Z,40.17
2022-08-25T15:57:38.811Z,39.62
2022-08-25T15:58:49.923Z,39.16
2022-08-25T15:59:58.190Z,38.41
2022-08-25T16:01:09.299Z,38.05
2022-08-25T16:02:17.570Z,37.37
2022-08-25T16:03:26.769Z,37.40
2022-08-25T16:04:40.539Z,37.42
2022-08-25T16:05:48.061Z,37.55
2022-08-25T16:06:57.298Z,37.88
2022-08-25T16:08:06.763Z,38.37
2022-08-25T16:09:29.316Z,38.78